Time;durP1;ratioP1;P1;durP2;ratioP2;P2;SDS_P1;SDS_P2;PMS_P1;PMS_P2;Temp;Humidity;BMP_temperature;BMP_pressure;BME280_temperature;BME280_humidity;BME280_pressure;Samples;Min_cycle;Max_cycle;Signal;HPM_P1;HPM_P2
2021/05/22 00:02:22;;;;;;;0.93;0.80;;;19.00;40.20;;;;;;8295072;28;20026;-52
2021/05/22 00:06:23;;;;;;;0.77;0.73;;;19.00;40.20;;;;;;8282601;28;20390;-53
2021/05/22 00:10:24;;;;;;;1.23;0.90;;;19.00;40.30;;;;;;8292771;28;20033;-51
2021/05/22 00:14:24;;;;;;;1.30;1.00;;;19.00;40.30;;;;;;8288551;28;20399;-52
2021/05/22 00:18:25;;;;;;;1.57;1.10;;;19.00;40.30;;;;;;8265185;28;20126;-51
2021/05/22 00:22:26;;;;;;;1.60;1.00;;;18.90;40.20;;;;;;8264860;28;20073;-50
2021/05/22 00:26:27;;;;;;;2.63;1.10;;;18.90;40.20;;;;;;8263289;28;20037;-51
2021/05/22 00:30:27;;;;;;;1.43;0.97;;;18.90;40.20;;;;;;8269242;28;20121;-52
2021/05/22 00:34:28;;;;;;;1.73;0.93;;;18.90;40.20;;;;;;8288660;28;20125;-50
2021/05/22 00:38:28;;;;;;;1.17;0.90;;;18.90;40.20;;;;;;8271065;28;20040;-53
2021/05/22 00:42:29;;;;;;;0.80;0.80;;;18.90;40.30;;;;;;8296661;28;20112;-52
2021/05/22 00:46:30;;;;;;;1.27;0.90;;;18.90;40.20;;;;;;8301057;28;20037;-50
2021/05/22 00:50:37;;;;;;;0.80;0.80;;;18.90;40.20;;;;;;8295144;28;20065;-50
2021/05/22 00:54:37;;;;;;;1.60;0.88;;;18.90;40.20;;;;;;8296420;28;20042;-49
2021/05/22 00:58:38;;;;;;;1.00;0.90;;;18.90;40.20;;;;;;8294049;28;20467;-52
2021/05/22 01:02:40;;;;;;;2.33;0.80;;;18.90;40.20;;;;;;8296155;28;20070;-50
2021/05/22 01:06:41;;;;;;;1.00;0.85;;;18.90;40.20;;;;;;8300691;28;20034;-49
2021/05/22 01:10:43;;;;;;;1.50;1.13;;;18.90;40.20;;;;;;8270037;28;20057;-50
2021/05/22 01:14:47;;;;;;;1.25;0.80;;;18.90;40.20;;;;;;8296167;28;20065;-50
2021/05/22 01:18:49;;;;;;;1.33;0.98;;;18.90;40.20;;;;;;8296199;28;20036;-49
2021/05/22 01:22:53;;;;;;;0.80;0.80;;;18.90;40.20;;;;;;8298145;28;20044;-51
2021/05/22 01:26:54;;;;;;;0.80;0.80;;;18.90;40.20;;;;;;8295432;28;20038;-51
2021/05/22 01:30:55;;;;;;;1.07;0.70;;;18.90;40.20;;;;;;8295241;28;20517;-51
2021/05/22 01:34:55;;;;;;;1.02;0.85;;;18.90;40.20;;;;;;8290305;28;20041;-51
2021/05/22 01:38:56;;;;;;;1.65;0.93;;;18.90;40.20;;;;;;8263892;28;20030;-50
2021/05/22 01:42:57;;;;;;;1.17;0.80;;;18.80;40.10;;;;;;8265976;28;20117;-50
2021/05/22 01:46:59;;;;;;;1.17;0.80;;;18.80;40.10;;;;;;8260715;28;20049;-49
2021/05/22 01:51:06;;;;;;;1.17;0.60;;;18.80;40.10;;;;;;8262442;28;20459;-50
2021/05/22 01:55:08;;;;;;;1.23;1.13;;;18.80;40.10;;;;;;8262195;28;20113;-50
2021/05/22 01:59:09;;;;;;;0.98;0.77;;;18.80;40.20;;;;;;8281982;28;20033;-50
2021/05/22 02:03:40;;;;;;;1.35;0.75;;;18.80;40.20;;;;;;8294542;28;20041;-48
2021/05/22 02:07:40;;;;;;;1.25;0.98;;;18.80;40.20;;;;;;8289930;28;20069;-49
2021/05/22 02:11:44;;;;;;;1.03;0.77;;;18.70;40.20;;;;;;8271317;28;20050;-49
2021/05/22 02:15:52;;;;;;;1.98;0.70;;;18.80;40.20;;;;;;8294157;28;20120;-49
2021/05/22 02:19:54;;;;;;;0.95;0.70;;;18.80;40.20;;;;;;8296495;28;20497;-49
2021/05/22 02:23:56;;;;;;;1.00;0.77;;;18.80;40.30;;;;;;8293894;28;20050;-50
2021/05/22 02:27:58;;;;;;;;;;;18.80;40.20;;;;;;8294286;28;20030;-50
2021/05/22 02:32:01;;;;;;;0.63;0.60;;;18.80;40.30;;;;;;8291605;28;19921;-50
2021/05/22 02:36:03;;;;;;;0.68;0.60;;;18.80;40.30;;;;;;8297662;28;20034;-51
2021/05/22 02:40:14;;;;;;;0.70;0.70;;;18.70;40.30;;;;;;8293165;28;20041;-48
2021/05/22 02:44:16;;;;;;;0.80;0.60;;;18.80;40.30;;;;;;8291927;28;20038;-52
2021/05/22 02:48:19;;;;;;;0.70;0.70;;;18.70;40.30;;;;;;8293258;28;20048;-50
2021/05/22 02:52:20;;;;;;;0.85;0.70;;;18.70;40.30;;;;;;8292874;28;20096;-52
2021/05/22 02:56:21;;;;;;;0.70;0.70;;;18.70;40.30;;;;;;8295739;28;20384;-51
2021/05/22 03:00:23;;;;;;;0.75;0.65;;;18.70;40.30;;;;;;8292657;28;20037;-51
2021/05/22 03:04:24;;;;;;;1.27;1.00;;;18.70;40.30;;;;;;8292574;28;20092;-49
2021/05/22 03:08:24;;;;;;;1.33;0.70;;;18.70;40.30;;;;;;8291097;28;20037;-49
2021/05/22 03:12:30;;;;;;;1.57;0.70;;;18.70;40.30;;;;;;8296985;28;20517;-50
2021/05/22 03:16:31;;;;;;;0.80;0.70;;;18.70;40.30;;;;;;8293024;28;20042;-48
2021/05/22 03:20:31;;;;;;;1.27;0.70;;;18.70;40.30;;;;;;8292305;28;20544;-51
2021/05/22 03:24:32;;;;;;;1.20;0.67;;;18.70;40.30;;;;;;8292623;28;20041;-50
2021/05/22 03:28:33;;;;;;;0.83;0.80;;;18.70;40.30;;;;;;8265864;28;20084;-49
2021/05/22 03:32:34;;;;;;;0.63;0.60;;;18.70;40.30;;;;;;8264171;28;20041;-49
2021/05/22 03:36:34;;;;;;;1.27;0.80;;;18.70;40.30;;;;;;8259747;28;20049;-50
2021/05/22 03:40:35;;;;;;;0.87;0.77;;;18.70;40.30;;;;;;8282856;28;20065;-49
2021/05/22 03:44:35;;;;;;;0.83;0.77;;;18.70;40.30;;;;;;8292253;28;20034;-50
2021/05/22 03:48:36;;;;;;;0.80;0.60;;;18.70;40.30;;;;;;8296448;28;20160;-51
2021/05/22 03:52:36;;;;;;;0.80;0.60;;;18.70;40.20;;;;;;8265389;28;20054;-48
2021/05/22 03:56:37;;;;;;;0.70;0.70;;;18.70;40.30;;;;;;8268414;28;20092;-50
2021/05/22 04:00:37;;;;;;;0.93;0.70;;;18.70;40.30;;;;;;8291927;28;20479;-49
2021/05/22 04:04:38;;;;;;;0.87;0.73;;;18.70;40.30;;;;;;8290364;28;20062;-51
2021/05/22 04:08:38;;;;;;;0.50;0.50;;;18.70;40.30;;;;;;8296398;28;20030;-49
2021/05/22 04:12:39;;;;;;;0.83;0.60;;;18.70;40.30;;;;;;8291406;28;20038;-49
2021/05/22 04:16:40;;;;;;;1.20;0.80;;;18.70;40.30;;;;;;8290035;28;20030;-50
2021/05/22 04:20:40;;;;;;;0.60;0.40;;;18.70;40.30;;;;;;8291683;28;20553;-50
2021/05/22 04:24:41;;;;;;;0.60;0.50;;;18.70;40.30;;;;;;8278007;28;20467;-51
2021/05/22 04:28:41;;;;;;;0.77;0.70;;;18.70;40.20;;;;;;8283113;28;20601;-48
2021/05/22 04:32:42;;;;;;;0.80;0.80;;;18.70;40.80;;;;;;8294784;28;20081;-50
2021/05/22 04:36:42;;;;;;;0.60;0.60;;;18.70;40.30;;;;;;8297246;28;20498;-50
2021/05/22 04:40:43;;;;;;;0.97;0.63;;;18.70;40.30;;;;;;8299474;28;20033;-50
2021/05/22 04:44:43;;;;;;;0.43;0.43;;;18.70;40.30;;;;;;8296877;28;20125;-49
2021/05/22 04:48:44;;;;;;;0.90;0.60;;;18.70;40.30;;;;;;8296971;28;20037;-50
2021/05/22 04:52:44;;;;;;;0.97;0.80;;;18.70;40.30;;;;;;8294835;28;20045;-51
2021/05/22 04:56:45;;;;;;;1.13;0.83;;;18.70;40.30;;;;;;8296352;28;20062;-51
2021/05/22 05:00:46;;;;;;;0.50;0.50;;;18.70;40.30;;;;;;8300729;28;20030;-49
2021/05/22 05:04:46;;;;;;;0.50;0.50;;;18.70;40.30;;;;;;8294622;28;20038;-52
2021/05/22 05:08:47;;;;;;;0.60;0.60;;;18.70;40.20;;;;;;8296416;28;20079;-52
2021/05/22 05:12:48;;;;;;;1.13;0.70;;;18.70;40.30;;;;;;8296042;28;20054;-51
2021/05/22 05:16:48;;;;;;;1.17;0.83;;;18.70;40.30;;;;;;8298872;28;20050;-49
2021/05/22 05:20:49;;;;;;;0.70;0.67;;;18.70;40.30;;;;;;8295598;28;20042;-52
2021/05/22 05:24:50;;;;;;;0.93;0.60;;;18.70;40.20;;;;;;8276530;28;20051;-53
2021/05/22 05:28:50;;;;;;;0.60;0.60;;;18.80;40.10;;;;;;8261926;28;20485;-51
2021/05/22 05:32:51;;;;;;;0.50;0.50;;;18.80;40.00;;;;;;8277948;28;20133;-53
2021/05/22 05:36:51;;;;;;;1.03;0.50;;;18.90;39.80;;;;;;8295213;28;20486;-53
2021/05/22 05:40:55;;;;;;;0.57;0.50;;;19.00;39.70;;;;;;8293463;28;20386;-50
2021/05/22 05:44:56;;;;;;;1.50;0.77;;;19.00;39.60;;;;;;8294791;28;20044;-52
2021/05/22 05:48:57;;;;;;;0.68;0.55;;;19.00;39.60;;;;;;8294893;28;20037;-51
2021/05/22 05:52:57;;;;;;;0.90;0.60;;;18.90;39.70;;;;;;8297370;28;20046;-51
2021/05/22 05:56:58;;;;;;;0.80;0.70;;;18.90;39.80;;;;;;8294363;28;20124;-51
2021/05/22 06:00:59;;;;;;;0.53;0.50;;;18.90;39.90;;;;;;8294554;28;20402;-50
2021/05/22 06:05:00;;;;;;;0.50;0.50;;;18.80;39.90;;;;;;8292486;28;20038;-53
2021/05/22 06:09:02;;;;;;;1.20;0.90;;;18.80;40.00;;;;;;8298311;28;20474;-52
2021/05/22 06:13:03;;;;;;;0.77;0.68;;;18.80;40.00;;;;;;8294223;28;20057;-52
2021/05/22 06:17:03;;;;;;;0.83;0.80;;;18.80;40.00;;;;;;8267309;28;20072;-52
2021/05/22 06:21:06;;;;;;;1.03;0.60;;;18.80;40.00;;;;;;8293692;28;20399;-49
2021/05/22 06:25:07;;;;;;;1.05;0.82;;;18.80;40.00;;;;;;8293610;28;20073;-52
2021/05/22 06:29:07;;;;;;;0.73;0.60;;;18.80;40.10;;;;;;8296151;28;20033;-50
2021/05/22 06:33:08;;;;;;;0.83;0.60;;;18.80;40.10;;;;;;8293495;28;20388;-53
2021/05/22 06:37:09;;;;;;;0.73;0.73;;;18.80;40.10;;;;;;8271930;28;20121;-51
2021/05/22 06:41:09;;;;;;;0.53;0.53;;;18.80;40.10;;;;;;8259813;28;20058;-52
2021/05/22 06:45:14;;;;;;;1.27;0.50;;;18.80;40.10;;;;;;8278293;28;20022;-51
2021/05/22 06:49:16;;;;;;;1.42;0.57;;;18.80;40.00;;;;;;8292872;28;20507;-51
2021/05/22 06:53:16;;;;;;;1.55;0.93;;;18.80;40.00;;;;;;8291295;28;20042;-51
2021/05/22 06:57:18;;;;;;;1.03;0.50;;;18.80;39.90;;;;;;8292769;28;20540;-51
2021/05/22 07:01:18;;;;;;;1.58;0.77;;;18.90;40.40;;;;;;8297141;28;20487;-49
2021/05/22 07:05:19;;;;;;;1.57;0.70;;;18.90;39.80;;;;;;8292043;28;20026;-50
2021/05/22 07:09:19;;;;;;;1.47;0.70;;;18.90;39.80;;;;;;8292524;28;20398;-49
2021/05/22 07:13:20;;;;;;;0.80;0.60;;;18.90;39.80;;;;;;8290952;28;20533;-50
2021/05/22 07:17:20;;;;;;;2.53;0.70;;;19.00;39.90;;;;;;8305765;28;20421;-48
2021/05/22 07:21:21;;;;;;;1.90;1.00;;;18.90;39.80;;;;;;8277200;28;20038;-54
2021/05/22 07:25:23;;;;;;;1.03;0.70;;;18.90;39.90;;;;;;8286119;28;20042;-50
2021/05/22 07:29:24;;;;;;;;;;;18.90;39.90;;;;;;8259537;28;20391;-51
2021/05/22 07:33:29;;;;;;;1.00;0.63;;;18.90;39.90;;;;;;8260261;28;20008;-49
2021/05/22 07:37:30;;;;;;;0.93;0.50;;;18.90;39.90;;;;;;8263967;28;20113;-50
2021/05/22 07:41:31;;;;;;;1.27;0.70;;;18.90;40.00;;;;;;8258294;28;20407;-50
2021/05/22 07:45:31;;;;;;;2.00;0.70;;;18.90;39.80;;;;;;8258255;28;20061;-50
2021/05/22 07:49:38;;;;;;;1.33;0.80;;;18.90;39.90;;;;;;8257935;28;20038;-47
2021/05/22 07:53:38;;;;;;;1.23;0.73;;;18.90;39.90;;;;;;8291865;28;20418;-48
2021/05/22 07:57:39;;;;;;;1.20;0.70;;;19.00;39.90;;;;;;8296154;28;20038;-50
2021/05/22 08:01:40;;;;;;;0.55;0.55;;;19.00;39.80;;;;;;8289757;28;20058;-48
2021/05/22 08:05:40;;;;;;;2.77;0.80;;;19.00;39.80;;;;;;8307462;28;20045;-49
2021/05/22 08:09:41;;;;;;;3.03;0.70;;;19.00;39.80;;;;;;8298044;28;20116;-49
2021/05/22 08:13:41;;;;;;;1.87;0.73;;;18.90;39.70;;;;;;8300667;28;20052;-49
2021/05/22 08:17:42;;;;;;;1.67;0.77;;;19.00;39.70;;;;;;8298392;28;20137;-49
2021/05/22 08:21:43;;;;;;;1.03;0.70;;;19.00;39.80;;;;;;8297254;28;20750;-50
2021/05/22 08:25:43;;;;;;;0.60;0.50;;;19.00;39.80;;;;;;8271177;28;20081;-49
2021/05/22 08:29:44;;;;;;;1.10;0.60;;;19.00;39.70;;;;;;8300733;28;20034;-52
2021/05/22 08:33:45;;;;;;;1.87;0.87;;;19.00;39.80;;;;;;8298278;28;20072;-49
2021/05/22 08:37:46;;;;;;;3.08;0.80;;;19.00;39.70;;;;;;8295054;28;20030;-50
2021/05/22 08:41:50;;;;;;;1.00;0.60;;;19.00;39.70;;;;;;8296647;28;20121;-49
2021/05/22 08:45:50;;;;;;;1.50;0.60;;;19.00;39.70;;;;;;8296906;28;20034;-49
2021/05/22 08:49:51;;;;;;;3.60;0.90;;;19.00;39.60;;;;;;8299312;28;20049;-50
2021/05/22 08:53:52;;;;;;;3.53;1.10;;;19.10;39.60;;;;;;8296741;28;20046;-49
2021/05/22 08:57:53;;;;;;;1.13;0.77;;;19.10;39.60;;;;;;8296814;28;20030;-49
2021/05/22 09:01:53;;;;;;;2.10;1.00;;;19.20;39.60;;;;;;8294424;28;20061;-49
2021/05/22 09:05:54;;;;;;;1.57;0.90;;;19.20;39.60;;;;;;8300414;28;20073;-51
2021/05/22 09:10:09;;;;;;;1.90;0.98;;;19.20;39.60;;;;;;8296226;28;20107;-47
2021/05/22 09:14:09;;;;;;;1.55;0.90;;;19.20;39.50;;;;;;8288643;28;20046;-50
2021/05/22 09:18:12;;;;;;;4.17;1.00;;;19.20;39.50;;;;;;8276065;28;20034;-50
2021/05/22 09:22:24;;;;;;;3.90;1.17;;;19.30;39.50;;;;;;8273852;28;20566;-48
2021/05/22 09:26:32;;;;;;;4.10;1.52;;;19.30;39.40;;;;;;8290130;28;20387;-48
2021/05/22 09:30:34;;;;;;;2.50;0.90;;;19.30;39.30;;;;;;8279449;28;20088;-48
2021/05/22 09:34:34;;;;;;;4.28;1.42;;;19.40;39.30;;;;;;8293083;28;20042;-48
2021/05/22 09:39:05;;;;;;;1.10;0.77;;;19.40;39.20;;;;;;8295009;28;20041;-49
2021/05/22 09:43:07;;;;;;;3.10;1.10;;;19.40;39.20;;;;;;8271736;28;20085;-48
2021/05/22 09:47:08;;;;;;;3.25;1.30;;;19.40;39.20;;;;;;8265247;28;20031;-47
2021/05/22 09:51:09;;;;;;;1.70;0.90;;;19.40;39.10;;;;;;8262655;28;20084;-47
2021/05/22 09:55:10;;;;;;;3.13;1.35;;;19.40;39.00;;;;;;8262310;28;20035;-48
2021/05/22 09:59:13;;;;;;;2.83;1.17;;;19.50;39.10;;;;;;8284903;28;20035;-47
2021/05/22 10:03:22;;;;;;;1.75;1.33;;;19.50;39.10;;;;;;8266435;28;20101;-46
2021/05/22 10:07:35;;;;;;;2.22;1.00;;;19.50;39.00;;;;;;8263949;28;20062;-49
2021/05/22 10:12:02;;;;;;;2.60;1.02;;;19.60;39.30;;;;;;8283883;28;20038;-49
2021/05/22 10:16:06;;;;;;;1.42;0.90;;;19.60;39.20;;;;;;8261676;28;20498;-49
2021/05/22 10:20:07;;;;;;;2.10;0.90;;;19.70;39.10;;;;;;8264606;28;20391;-47
2021/05/22 10:24:08;;;;;;;;;;;19.70;39.00;;;;;;8285548;28;20034;-48
2021/05/22 10:28:09;;;;;;;1.30;1.00;;;19.80;38.90;;;;;;8260746;28;19920;-46
2021/05/22 10:32:27;;;;;;;0.93;0.80;;;19.80;38.90;;;;;;8259318;28;20065;-49
2021/05/22 10:36:48;;;;;;;1.77;0.90;;;19.80;38.80;;;;;;8260906;28;20145;-49
2021/05/22 10:40:51;;;;;;;2.45;1.10;;;19.90;38.80;;;;;;8285639;28;20486;-48
2021/05/22 10:44:52;;;;;;;1.45;0.82;;;19.90;38.70;;;;;;8297718;28;20113;-48
2021/05/22 10:48:59;;;;;;;1.73;1.10;;;19.90;38.80;;;;;;8292992;28;20041;-49
2021/05/22 10:53:21;;;;;;;1.73;0.90;;;19.90;38.70;;;;;;8306302;28;20038;-49
2021/05/22 10:57:21;;;;;;;1.33;0.90;;;19.90;38.70;;;;;;8292848;28;20042;-48
2021/05/22 11:01:29;;;;;;;1.60;0.97;;;19.90;38.60;;;;;;8292978;28;20390;-49
2021/05/22 11:05:42;;;;;;;1.25;0.90;;;20.00;38.60;;;;;;8295704;28;20041;-47
2021/05/22 11:09:44;;;;;;;1.65;0.82;;;20.00;38.60;;;;;;8274633;28;20458;-48
2021/05/22 11:13:45;;;;;;;1.23;0.70;;;20.00;38.60;;;;;;8284732;28;20387;-48
2021/05/22 11:17:46;;;;;;;2.58;1.00;;;20.00;38.50;;;;;;8282232;28;20031;-48
2021/05/22 11:22:14;;;;;;;2.10;0.80;;;20.00;38.50;;;;;;8259767;28;20395;-46
2021/05/22 11:26:15;;;;;;;2.53;1.10;;;20.00;38.50;;;;;;8268144;28;20087;-49
2021/05/22 11:30:35;;;;;;;1.30;0.80;;;20.00;38.50;;;;;;8277975;28;20042;-50
2021/05/22 11:34:36;;;;;;;2.40;0.90;;;20.10;38.50;;;;;;8258567;28;20053;-47
2021/05/22 11:38:37;;;;;;;1.77;0.80;;;20.10;38.50;;;;;;8291960;28;20495;-48
2021/05/22 11:42:38;;;;;;;2.28;1.08;;;20.10;38.50;;;;;;8297429;28;20034;-48
2021/05/22 11:46:38;;;;;;;1.50;0.73;;;20.10;38.50;;;;;;8301116;28;20092;-50
2021/05/22 11:50:39;;;;;;;0.90;0.73;;;20.10;38.40;;;;;;8298413;28;20372;-50
2021/05/22 11:54:39;;;;;;;1.30;0.60;;;20.20;38.40;;;;;;8298027;28;20037;-47
2021/05/22 11:58:42;;;;;;;1.53;0.80;;;20.20;38.40;;;;;;8296131;28;20061;-48
2021/05/22 12:02:43;;;;;;;1.25;0.80;;;20.10;38.30;;;;;;8302519;28;20037;-48
2021/05/22 12:06:45;;;;;;;1.67;0.53;;;20.20;38.30;;;;;;8297963;28;20122;-47
2021/05/22 12:10:46;;;;;;;2.33;1.08;;;20.20;38.30;;;;;;8296230;28;20064;-47
2021/05/22 12:14:47;;;;;;;1.77;0.97;;;20.20;38.30;;;;;;8297438;28;20037;-47
2021/05/22 12:18:50;;;;;;;2.78;1.02;;;20.20;38.30;;;;;;8297978;28;20034;-47
2021/05/22 12:22:50;;;;;;;3.83;1.63;;;20.20;38.30;;;;;;8300415;28;20042;-47
2021/05/22 12:26:54;;;;;;;2.37;1.30;;;20.20;38.20;;;;;;8297972;28;20117;-47
2021/05/22 12:31:00;;;;;;;3.67;1.10;;;20.20;38.20;;;;;;8297523;28;20547;-49
2021/05/22 12:35:04;;;;;;;2.55;1.27;;;20.20;38.20;;;;;;8295680;28;20080;-48
2021/05/22 12:39:12;;;;;;;3.00;1.20;;;20.20;38.10;;;;;;8301323;28;20041;-47
2021/05/22 12:43:14;;;;;;;2.25;1.20;;;20.20;38.10;;;;;;8275295;28;20406;-47
2021/05/22 12:47:14;;;;;;;;;;;20.20;38.10;;;;;;8269336;28;20041;-49
2021/05/22 12:51:22;;;;;;;2.93;0.93;;;20.20;38.00;;;;;;8296149;28;19953;-48
2021/05/22 12:55:30;;;;;;;2.42;1.00;;;20.20;38.10;;;;;;8296767;28;20026;-49
2021/05/22 12:59:32;;;;;;;2.42;1.25;;;20.20;38.10;;;;;;8299145;28;20033;-49
2021/05/22 13:03:42;;;;;;;;;;;20.30;38.00;;;;;;8297096;28;20379;-48
2021/05/22 13:07:46;;;;;;;2.00;1.10;;;20.30;38.00;;;;;;8294974;28;20204;-48
2021/05/22 13:12:01;;;;;;;1.65;1.02;;;20.40;38.00;;;;;;8295830;28;20042;-48
2021/05/22 13:16:07;;;;;;;1.23;0.90;;;20.40;37.90;;;;;;8295963;28;20437;-46
2021/05/22 13:20:15;;;;;;;1.55;1.10;;;20.40;37.90;;;;;;8298237;28;20513;-49
2021/05/22 13:24:16;;;;;;;2.08;1.05;;;20.40;37.90;;;;;;8295444;28;20041;-47
2021/05/22 13:28:48;;;;;;;1.05;0.90;;;20.40;37.90;;;;;;8310414;28;20037;-49
2021/05/22 13:32:48;;;;;;;1.40;0.93;;;20.40;37.80;;;;;;8291530;28;20415;-47
2021/05/22 13:36:51;;;;;;;2.13;1.10;;;20.40;37.80;;;;;;8295208;28;20076;-47
2021/05/22 13:40:51;;;;;;;2.60;1.15;;;20.40;37.80;;;;;;8297938;28;20120;-48
2021/05/22 13:44:52;;;;;;;2.10;1.13;;;20.40;37.80;;;;;;8295216;28;20046;-48
2021/05/22 13:48:53;;;;;;;2.50;1.60;;;20.40;37.80;;;;;;8295356;28;20096;-48
2021/05/22 13:52:53;;;;;;;2.53;1.23;;;20.50;37.90;;;;;;8292931;28;20038;-48
2021/05/22 13:56:54;;;;;;;1.98;1.27;;;20.50;37.80;;;;;;8288103;28;20031;-47
2021/05/22 14:00:55;;;;;;;4.47;1.67;;;20.50;37.80;;;;;;8262298;28;20486;-48
2021/05/22 14:04:56;;;;;;;3.27;1.60;;;20.50;37.80;;;;;;8259193;28;20049;-48
2021/05/22 14:08:57;;;;;;;2.65;1.40;;;20.50;37.70;;;;;;8261555;28;20273;-48
2021/05/22 14:12:58;;;;;;;3.07;1.43;;;20.50;37.70;;;;;;8285889;28;20045;-50
2021/05/22 14:16:58;;;;;;;3.38;1.77;;;20.50;37.70;;;;;;8292364;28;20068;-50
2021/05/22 14:20:59;;;;;;;4.53;1.73;;;20.50;37.70;;;;;;8293773;28;20562;-48
2021/05/22 14:25:00;;;;;;;2.60;1.40;;;20.50;37.70;;;;;;8293190;28;20525;-49
2021/05/22 14:29:01;;;;;;;;;;;20.60;37.70;;;;;;8292476;28;20045;-48
2021/05/22 14:33:03;;;;;;;3.93;1.97;;;20.60;37.70;;;;;;8297827;28;19948;-47
2021/05/22 14:37:04;;;;;;;2.33;1.60;;;20.50;37.80;;;;;;8293445;28;20038;-48
2021/05/22 14:41:05;;;;;;;3.40;1.58;;;20.60;37.80;;;;;;8291553;28;20491;-48
2021/05/22 14:45:08;;;;;;;7.07;1.70;;;20.60;37.70;;;;;;8293521;28;20026;-47
2021/05/22 14:49:09;;;;;;;2.83;1.60;;;20.60;38.20;;;;;;8297568;28;20041;-48
2021/05/22 14:53:09;;;;;;;2.60;1.58;;;20.60;37.70;;;;;;8262071;28;20471;-47
2021/05/22 14:57:10;;;;;;;3.83;1.90;;;20.60;37.70;;;;;;8281262;28;20085;-49
2021/05/22 15:01:10;;;;;;;3.80;1.87;;;20.60;37.60;;;;;;8292925;28;20121;-48
2021/05/22 15:05:11;;;;;;;4.00;1.57;;;20.60;37.70;;;;;;8291004;28;20030;-49
2021/05/22 15:09:12;;;;;;;3.63;1.80;;;20.60;37.60;;;;;;8297056;28;20034;-49
2021/05/22 15:13:13;;;;;;;3.90;2.00;;;20.60;37.50;;;;;;8292773;28;20163;-49
2021/05/22 15:17:14;;;;;;;4.05;1.45;;;20.60;37.50;;;;;;8290431;28;20026;-48
2021/05/22 15:21:15;;;;;;;2.73;1.40;;;20.60;37.50;;;;;;8292118;28;20458;-48
2021/05/22 15:25:15;;;;;;;2.22;1.60;;;20.70;37.50;;;;;;8296643;28;20391;-48
2021/05/22 15:29:16;;;;;;;3.27;1.63;;;20.70;37.50;;;;;;8290283;28;20038;-48
2021/05/22 15:33:16;;;;;;;4.40;1.77;;;20.70;37.50;;;;;;8291813;28;20383;-49
2021/05/22 15:37:17;;;;;;;2.40;1.60;;;20.70;37.60;;;;;;8291640;28;20045;-48
2021/05/22 15:41:18;;;;;;;4.00;1.60;;;20.70;37.60;;;;;;8294605;28;20034;-50
2021/05/22 15:45:20;;;;;;;2.00;1.50;;;20.70;37.50;;;;;;8291614;28;20081;-48
2021/05/22 15:58:24;;;;;;;2.65;1.50;;;20.70;37.50;;;;;;8291676;28;20041;-50
2021/05/22 16:06:32;;;;;;;2.97;1.95;;;20.70;37.50;;;;;;8296361;28;20053;-49
2021/05/22 16:10:32;;;;;;;3.10;1.50;;;20.70;37.60;;;;;;8289966;28;20034;-50
2021/05/22 16:14:33;;;;;;;4.33;1.60;;;20.70;37.60;;;;;;8291689;28;20057;-50
2021/05/22 16:18:33;;;;;;;2.43;1.50;;;20.70;37.60;;;;;;8291818;28;20034;-48
2021/05/22 16:22:34;;;;;;;3.83;1.80;;;20.70;37.40;;;;;;8293658;28;20034;-49
2021/05/22 16:26:36;;;;;;;5.47;2.00;;;20.70;37.50;;;;;;8291892;28;20084;-49
2021/05/22 16:30:38;;;;;;;3.88;1.95;;;20.70;37.50;;;;;;8297457;28;20418;-48
2021/05/22 16:34:39;;;;;;;;;;;20.60;37.40;;;;;;8295985;28;20544;-50
2021/05/22 16:38:40;;;;;;;3.22;1.90;;;20.70;37.50;;;;;;8290117;28;19910;-49
2021/05/22 16:42:44;;;;;;;3.37;1.93;;;20.70;37.50;;;;;;8268267;28;20085;-50
2021/05/22 16:46:44;;;;;;;3.58;1.85;;;20.60;37.50;;;;;;8286643;28;20041;-49
2021/05/22 16:50:45;;;;;;;2.97;1.93;;;20.60;37.60;;;;;;8264318;28;20479;-48
2021/05/22 16:54:45;;;;;;;2.93;1.97;;;20.70;37.50;;;;;;8264253;28;20038;-50
2021/05/22 16:58:46;;;;;;;2.63;1.67;;;20.60;37.50;;;;;;8266968;28;20505;-49
2021/05/22 17:02:48;;;;;;;2.87;2.00;;;20.70;37.40;;;;;;8263900;28;20034;-49
2021/05/22 17:06:49;;;;;;;3.20;2.22;;;20.70;37.50;;;;;;8263685;28;20035;-49
2021/05/22 17:10:49;;;;;;;5.17;2.07;;;20.60;37.40;;;;;;8288604;28;20437;-48
2021/05/22 17:14:50;;;;;;;4.80;2.63;;;20.70;37.50;;;;;;8300457;28;20041;-48
2021/05/22 17:18:51;;;;;;;2.23;1.53;;;20.70;37.50;;;;;;8277542;28;20402;-49
2021/05/22 17:22:52;;;;;;;2.90;2.23;;;20.70;37.50;;;;;;8288950;28;20507;-49
2021/05/22 17:26:53;;;;;;;3.65;2.10;;;20.60;37.40;;;;;;8295613;28;20411;-48
2021/05/22 17:30:54;;;;;;;5.03;2.33;;;20.70;37.40;;;;;;8295520;28;20041;-49
2021/05/22 17:34:54;;;;;;;3.00;1.70;;;20.60;37.40;;;;;;8298272;28;20045;-49
2021/05/22 17:38:55;;;;;;;2.70;1.87;;;20.70;37.50;;;;;;8295113;28;20038;-51
2021/05/22 17:42:55;;;;;;;4.10;2.30;;;20.60;37.40;;;;;;8295282;28;20030;-49
2021/05/22 17:46:56;;;;;;;3.37;1.97;;;20.60;37.40;;;;;;8293420;28;20037;-51
2021/05/22 17:50:56;;;;;;;4.63;2.43;;;20.60;37.40;;;;;;8299278;28;20037;-48
2021/05/22 17:54:58;;;;;;;3.50;2.00;;;20.60;37.30;;;;;;8294898;28;20069;-47
2021/05/22 17:58:58;;;;;;;2.40;1.75;;;20.60;37.40;;;;;;8293490;28;20030;-49
2021/05/22 18:02:59;;;;;;;3.97;1.83;;;20.60;37.30;;;;;;8298028;28;20042;-49
2021/05/22 18:06:59;;;;;;;2.07;1.80;;;20.60;37.40;;;;;;8266538;28;20270;-48
2021/05/22 18:11:00;;;;;;;3.67;1.93;;;20.60;37.40;;;;;;8260794;28;20546;-48
2021/05/22 18:15:01;;;;;;;3.93;2.40;;;20.60;37.30;;;;;;8262127;28;20110;-47
2021/05/22 18:19:01;;;;;;;2.77;2.00;;;20.60;37.40;;;;;;8261578;28;20046;-49
2021/05/22 18:23:02;;;;;;;3.83;2.27;;;20.60;37.50;;;;;;8259495;28;20046;-47
2021/05/22 18:27:03;;;;;;;3.60;2.40;;;20.60;37.40;;;;;;8265657;28;20475;-48
2021/05/22 18:31:04;;;;;;;3.42;2.15;;;20.60;37.50;;;;;;8261095;28;20137;-48
2021/05/22 18:35:05;;;;;;;3.93;2.07;;;20.60;37.50;;;;;;8263882;28;20101;-47
2021/05/22 18:39:07;;;;;;;3.15;2.00;;;20.60;37.50;;;;;;8293614;28;20029;-48
2021/05/22 18:43:07;;;;;;;2.55;1.90;;;20.60;37.50;;;;;;8276500;28;20057;-48
2021/05/22 18:47:09;;;;;;;2.97;2.10;;;20.50;37.50;;;;;;8258970;28;20027;-47
2021/05/22 18:51:10;;;;;;;4.32;2.45;;;20.50;37.50;;;;;;8259957;28;20046;-48
2021/05/22 18:55:11;;;;;;;3.83;2.07;;;20.50;37.50;;;;;;8281984;28;20111;-47
2021/05/22 18:59:12;;;;;;;3.45;1.90;;;20.50;37.60;;;;;;8266924;28;20052;-47
2021/05/22 19:03:13;;;;;;;3.70;2.27;;;20.50;37.60;;;;;;8297140;28;20026;-46
2021/05/22 19:07:15;;;;;;;3.20;1.85;;;20.50;37.60;;;;;;8292878;28;20328;-47
2021/05/22 19:11:15;;;;;;;3.15;1.95;;;20.50;37.60;;;;;;8291159;28;20042;-48
2021/05/22 19:15:18;;;;;;;3.50;2.47;;;20.50;37.70;;;;;;8292566;28;20124;-48
2021/05/22 19:19:19;;;;;;;2.22;1.70;;;20.40;37.60;;;;;;8296900;28;20034;-49
2021/05/22 19:23:21;;;;;;;3.40;2.00;;;20.50;38.30;;;;;;8266370;28;20034;-47
2021/05/22 19:27:22;;;;;;;2.85;2.03;;;20.50;37.70;;;;;;8292708;28;20548;-47
2021/05/22 19:31:23;;;;;;;;;;;20.50;37.70;;;;;;8292734;28;20053;-47
2021/05/22 19:35:24;;;;;;;3.07;1.90;;;20.50;37.70;;;;;;8295037;28;19959;-48
2021/05/22 19:39:24;;;;;;;2.47;1.65;;;20.50;37.70;;;;;;8292039;28;20080;-48
2021/05/22 19:43:26;;;;;;;2.70;1.70;;;20.50;37.70;;;;;;8292060;28;20038;-47
2021/05/22 19:47:26;;;;;;;2.00;1.60;;;20.50;37.70;;;;;;8290385;28;20030;-47
2021/05/22 19:51:27;;;;;;;3.37;1.83;;;20.40;37.70;;;;;;8292137;28;20434;-49
2021/05/22 19:55:27;;;;;;;3.80;1.80;;;20.40;37.70;;;;;;8296558;28;20048;-48
2021/05/22 19:59:28;;;;;;;2.40;1.60;;;20.40;37.70;;;;;;8290366;28;20038;-50
2021/05/22 20:03:29;;;;;;;2.93;1.67;;;20.40;37.70;;;;;;8297487;28;20034;-48
2021/05/22 20:07:29;;;;;;;2.20;1.63;;;20.40;37.80;;;;;;8297096;28;20080;-49
2021/05/22 20:11:30;;;;;;;2.00;1.60;;;20.40;37.80;;;;;;8300827;28;20061;-49
2021/05/22 20:15:31;;;;;;;3.17;1.88;;;20.40;37.90;;;;;;8292314;28;20030;-48
2021/05/22 20:19:32;;;;;;;2.60;1.80;;;20.40;37.90;;;;;;8259377;28;20130;-48
2021/05/22 20:23:33;;;;;;;3.05;2.00;;;20.40;37.90;;;;;;8297653;28;20038;-48
2021/05/22 20:27:34;;;;;;;2.15;1.75;;;20.40;37.90;;;;;;8298674;28;20096;-48
2021/05/22 20:31:35;;;;;;;2.38;1.90;;;20.30;37.90;;;;;;8267241;28;20528;-49
2021/05/22 20:35:36;;;;;;;;;;;20.30;37.90;;;;;;8265460;28;20041;-50
2021/05/22 20:39:38;;;;;;;2.07;1.67;;;20.30;37.90;;;;;;8280427;28;20313;-49
2021/05/22 20:43:39;;;;;;;2.92;1.77;;;20.30;37.90;;;;;;8263077;28;20062;-50
2021/05/22 20:47:40;;;;;;;2.38;1.60;;;20.30;37.90;;;;;;8278360;28;20120;-50
2021/05/22 20:51:41;;;;;;;3.10;1.30;;;20.30;37.90;;;;;;8296833;28;20050;-51
2021/05/22 20:55:41;;;;;;;2.67;1.80;;;20.30;37.90;;;;;;8293625;28;20065;-49
2021/05/22 20:59:42;;;;;;;1.93;1.40;;;20.30;37.90;;;;;;8273728;28;20061;-50
2021/05/22 21:03:44;;;;;;;2.27;1.33;;;20.30;37.90;;;;;;8283107;28;20101;-50
2021/05/22 21:07:54;;;;;;;2.22;1.50;;;20.30;37.90;;;;;;8264572;28;20320;-52
2021/05/22 21:11:55;;;;;;;3.28;1.60;;;20.30;37.90;;;;;;8285184;28;20046;-51
2021/05/22 21:15:56;;;;;;;2.33;1.23;;;20.30;37.90;;;;;;8263413;28;20031;-52